sensor_id;sensor_type;location;lat;lon;timestamp;P1;durP1;ratioP1;P2;durP2;ratioP2
24555;SDS011;12725;49.440;10.954;2023-02-24T00:03:33;2.97;;;1.65;;
24555;SDS011;12725;49.440;10.954;2023-02-24T00:07:36;1.85;;;1.75;;
24555;SDS011;12725;49.440;10.954;2023-02-24T00:11:37;3.53;;;2.53;;
24555;SDS011;12725;49.440;10.954;2023-02-24T00:15:39;3.33;;;2.47;;
24555;SDS011;12725;49.440;10.954;2023-02-24T00:19:40;2.55;;;2.33;;
24555;SDS011;12725;49.440;10.954;2023-02-24T00:23:44;2.08;;;1.92;;
24555;SDS011;12725;49.440;10.954;2023-02-24T00:27:45;2.85;;;1.92;;
24555;SDS011;12725;49.440;10.954;2023-02-24T00:31:48;4.30;;;2.13;;
24555;SDS011;12725;49.440;10.954;2023-02-24T00:40:03;0.70;;;0.70;;
24555;SDS011;12725;49.440;10.954;2023-02-24T00:44:11;6.53;;;2.63;;
24555;SDS011;12725;49.440;10.954;2023-02-24T00:48:12;1.83;;;1.73;;
24555;SDS011;12725;49.440;10.954;2023-02-24T00:52:15;5.18;;;2.85;;
24555;SDS011;12725;49.440;10.954;2023-02-24T00:56:18;3.40;;;1.83;;
24555;SDS011;12725;49.440;10.954;2023-02-24T01:00:19;1.73;;;1.63;;
24555;SDS011;12725;49.440;10.954;2023-02-24T01:04:20;8.07;;;1.50;;
24555;SDS011;12725;49.440;10.954;2023-02-24T01:08:21;27.55;;;2.35;;
24555;SDS011;12725;49.440;10.954;2023-02-24T01:12:22;3.88;;;2.92;;
24555;SDS011;12725;49.440;10.954;2023-02-24T01:16:38;2.55;;;2.15;;
24555;SDS011;12725;49.440;10.954;2023-02-24T01:20:40;2.20;;;2.00;;
24555;SDS011;12725;49.440;10.954;2023-02-24T01:24:41;2.47;;;2.25;;
24555;SDS011;12725;49.440;10.954;2023-02-24T01:28:43;2.50;;;1.55;;
24555;SDS011;12725;49.440;10.954;2023-02-24T01:32:48;4.72;;;2.40;;
24555;SDS011;12725;49.440;10.954;2023-02-24T01:36:48;3.57;;;2.23;;
24555;SDS011;12725;49.440;10.954;2023-02-24T01:40:54;0.85;;;0.82;;
24555;SDS011;12725;49.440;10.954;2023-02-24T01:45:04;1.30;;;1.23;;
24555;SDS011;12725;49.440;10.954;2023-02-24T01:49:12;8.82;;;2.45;;
24555;SDS011;12725;49.440;10.954;2023-02-24T01:53:13;1.55;;;1.45;;
24555;SDS011;12725;49.440;10.954;2023-02-24T01:57:14;2.00;;;1.75;;
24555;SDS011;12725;49.440;10.954;2023-02-24T02:01:18;4.65;;;2.50;;
24555;SDS011;12725;49.440;10.954;2023-02-24T02:05:20;1.10;;;1.10;;
24555;SDS011;12725;49.440;10.954;2023-02-24T02:09:20;1.75;;;1.65;;
24555;SDS011;12725;49.440;10.954;2023-02-24T02:13:21;4.43;;;1.77;;
24555;SDS011;12725;49.440;10.954;2023-02-24T02:34:53;2.30;;;2.10;;
24555;SDS011;12725;49.440;10.954;2023-02-24T02:43:17;1.13;;;0.98;;
24555;SDS011;12725;49.440;10.954;2023-02-24T02:47:30;5.57;;;2.42;;
24555;SDS011;12725;49.440;10.954;2023-02-24T02:51:40;6.93;;;2.38;;
24555;SDS011;12725;49.440;10.954;2023-02-24T02:55:57;3.53;;;2.92;;
24555;SDS011;12725;49.440;10.954;2023-02-24T03:00:01;4.85;;;1.52;;
24555;SDS011;12725;49.440;10.954;2023-02-24T03:08:10;3.60;;;1.50;;
24555;SDS011;12725;49.440;10.954;2023-02-24T03:12:15;6.20;;;3.38;;
24555;SDS011;12725;49.440;10.954;2023-02-24T03:16:17;4.78;;;1.80;;
24555;SDS011;12725;49.440;10.954;2023-02-24T03:20:22;3.65;;;2.33;;
24555;SDS011;12725;49.440;10.954;2023-02-24T03:24:28;5.68;;;3.45;;
24555;SDS011;12725;49.440;10.954;2023-02-24T03:32:39;4.95;;;2.13;;
24555;SDS011;12725;49.440;10.954;2023-02-24T03:36:49;3.15;;;2.85;;
24555;SDS011;12725;49.440;10.954;2023-02-24T03:40:53;2.35;;;1.45;;
24555;SDS011;12725;49.440;10.954;2023-02-24T03:44:53;2.80;;;1.65;;
24555;SDS011;12725;49.440;10.954;2023-02-24T03:49:02;1.67;;;1.55;;
24555;SDS011;12725;49.440;10.954;2023-02-24T04:02:01;2.65;;;2.33;;
24555;SDS011;12725;49.440;10.954;2023-02-24T04:06:43;8.02;;;3.30;;
24555;SDS011;12725;49.440;10.954;2023-02-24T04:11:02;4.93;;;2.58;;
24555;SDS011;12725;49.440;10.954;2023-02-24T04:15:24;4.68;;;2.88;;
24555;SDS011;12725;49.440;10.954;2023-02-24T04:19:26;4.20;;;3.47;;
24555;SDS011;12725;49.440;10.954;2023-02-24T04:23:30;5.05;;;2.22;;
24555;SDS011;12725;49.440;10.954;2023-02-24T04:27:32;3.35;;;2.55;;
24555;SDS011;12725;49.440;10.954;2023-02-24T04:31:33;4.07;;;3.70;;
24555;SDS011;12725;49.440;10.954;2023-02-24T04:35:34;4.13;;;3.10;;
24555;SDS011;12725;49.440;10.954;2023-02-24T04:39:36;1.17;;;1.15;;
24555;SDS011;12725;49.440;10.954;2023-02-24T04:43:37;3.33;;;2.15;;
24555;SDS011;12725;49.440;10.954;2023-02-24T04:47:38;5.35;;;2.42;;
24555;SDS011;12725;49.440;10.954;2023-02-24T04:51:41;2.78;;;2.05;;
24555;SDS011;12725;49.440;10.954;2023-02-24T04:55:42;15.70;;;4.10;;
24555;SDS011;12725;49.440;10.954;2023-02-24T04:59:47;3.78;;;2.33;;
24555;SDS011;12725;49.440;10.954;2023-02-24T05:03:48;3.70;;;2.88;;
24555;SDS011;12725;49.440;10.954;2023-02-24T05:07:48;7.20;;;4.03;;
24555;SDS011;12725;49.440;10.954;2023-02-24T05:11:49;7.90;;;3.47;;
24555;SDS011;12725;49.440;10.954;2023-02-24T05:15:50;1.83;;;1.73;;
24555;SDS011;12725;49.440;10.954;2023-02-24T05:19:50;10.73;;;1.60;;
24555;SDS011;12725;49.440;10.954;2023-02-24T05:24:10;4.67;;;1.37;;
24555;SDS011;12725;49.440;10.954;2023-02-24T05:28:10;2.33;;;2.08;;
24555;SDS011;12725;49.440;10.954;2023-02-24T05:32:11;5.18;;;2.05;;
24555;SDS011;12725;49.440;10.954;2023-02-24T05:36:13;2.05;;;1.95;;
24555;SDS011;12725;49.440;10.954;2023-02-24T05:40:16;8.18;;;3.28;;
24555;SDS011;12725;49.440;10.954;2023-02-24T05:44:23;8.90;;;3.83;;
24555;SDS011;12725;49.440;10.954;2023-02-24T05:48:25;2.92;;;2.67;;
24555;SDS011;12725;49.440;10.954;2023-02-24T05:52:27;3.80;;;2.35;;
24555;SDS011;12725;49.440;10.954;2023-02-24T05:56:28;4.03;;;2.83;;
24555;SDS011;12725;49.440;10.954;2023-02-24T06:00:28;1.77;;;1.63;;
24555;SDS011;12725;49.440;10.954;2023-02-24T06:04:28;2.80;;;2.60;;
24555;SDS011;12725;49.440;10.954;2023-02-24T06:08:47;1.20;;;1.20;;
24555;SDS011;12725;49.440;10.954;2023-02-24T06:12:48;3.22;;;2.20;;
24555;SDS011;12725;49.440;10.954;2023-02-24T06:16:49;16.50;;;2.63;;
24555;SDS011;12725;49.440;10.954;2023-02-24T06:20:50;11.27;;;3.53;;
24555;SDS011;12725;49.440;10.954;2023-02-24T06:24:51;3.47;;;3.17;;
24555;SDS011;12725;49.440;10.954;2023-02-24T06:28:53;19.35;;;5.63;;
24555;SDS011;12725;49.440;10.954;2023-02-24T06:32:53;8.10;;;4.30;;
24555;SDS011;12725;49.440;10.954;2023-02-24T06:36:54;3.97;;;3.50;;
24555;SDS011;12725;49.440;10.954;2023-02-24T06:40:55;5.15;;;4.15;;
24555;SDS011;12725;49.440;10.954;2023-02-24T06:45:02;8.95;;;6.13;;
24555;SDS011;12725;49.440;10.954;2023-02-24T06:49:03;4.00;;;2.70;;
24555;SDS011;12725;49.440;10.954;2023-02-24T06:53:03;4.25;;;2.80;;
24555;SDS011;12725;49.440;10.954;2023-02-24T06:57:08;6.75;;;2.83;;
24555;SDS011;12725;49.440;10.954;2023-02-24T07:01:13;4.22;;;2.75;;
24555;SDS011;12725;49.440;10.954;2023-02-24T07:05:14;5.00;;;4.57;;
24555;SDS011;12725;49.440;10.954;2023-02-24T07:09:16;4.15;;;2.88;;
24555;SDS011;12725;49.440;10.954;2023-02-24T07:13:18;3.67;;;2.72;;
24555;SDS011;12725;49.440;10.954;2023-02-24T07:17:19;3.05;;;2.63;;
24555;SDS011;12725;49.440;10.954;2023-02-24T07:21:19;9.85;;;4.40;;
24555;SDS011;12725;49.440;10.954;2023-02-24T07:25:23;12.32;;;3.00;;
24555;SDS011;12725;49.440;10.954;2023-02-24T07:29:42;6.55;;;3.53;;
24555;SDS011;12725;49.440;10.954;2023-02-24T07:33:44;9.38;;;4.65;;
24555;SDS011;12725;49.440;10.954;2023-02-24T07:37:45;6.32;;;3.20;;
24555;SDS011;12725;49.440;10.954;2023-02-24T07:41:48;2.30;;;1.60;;
24555;SDS011;12725;49.440;10.954;2023-02-24T07:45:49;3.40;;;1.67;;
24555;SDS011;12725;49.440;10.954;2023-02-24T07:49:51;1.60;;;1.45;;
24555;SDS011;12725;49.440;10.954;2023-02-24T07:53:53;2.70;;;2.50;;
24555;SDS011;12725;49.440;10.954;2023-02-24T07:57:58;10.25;;;3.33;;
24555;SDS011;12725;49.440;10.954;2023-02-24T08:02:01;19.15;;;4.22;;
24555;SDS011;12725;49.440;10.954;2023-02-24T08:06:07;12.02;;;3.75;;
24555;SDS011;12725;49.440;10.954;2023-02-24T08:10:25;5.85;;;4.65;;
24555;SDS011;12725;49.440;10.954;2023-02-24T08:14:27;3.85;;;2.65;;
24555;SDS011;12725;49.440;10.954;2023-02-24T08:18:31;10.13;;;4.75;;
24555;SDS011;12725;49.440;10.954;2023-02-24T08:22:36;4.63;;;3.22;;
24555;SDS011;12725;49.440;10.954;2023-02-24T08:26:36;3.08;;;2.85;;
24555;SDS011;12725;49.440;10.954;2023-02-24T08:30:43;12.38;;;3.03;;
24555;SDS011;12725;49.440;10.954;2023-02-24T08:34:44;3.47;;;2.42;;
24555;SDS011;12725;49.440;10.954;2023-02-24T08:38:48;8.15;;;3.75;;
24555;SDS011;12725;49.440;10.954;2023-02-24T08:42:51;3.53;;;3.22;;
24555;SDS011;12725;49.440;10.954;2023-02-24T08:46:52;2.75;;;2.05;;
24555;SDS011;12725;49.440;10.954;2023-02-24T08:50:54;3.15;;;2.85;;
24555;SDS011;12725;49.440;10.954;2023-02-24T08:54:55;8.35;;;4.88;;
24555;SDS011;12725;49.440;10.954;2023-02-24T08:59:04;11.02;;;5.57;;
24555;SDS011;12725;49.440;10.954;2023-02-24T09:03:04;15.88;;;4.75;;
24555;SDS011;12725;49.440;10.954;2023-02-24T09:07:11;5.97;;;4.35;;
24555;SDS011;12725;49.440;10.954;2023-02-24T09:11:14;3.05;;;2.63;;
24555;SDS011;12725;49.440;10.954;2023-02-24T09:15:15;7.25;;;4.28;;
24555;SDS011;12725;49.440;10.954;2023-02-24T09:19:15;3.33;;;3.00;;
24555;SDS011;12725;49.440;10.954;2023-02-24T09:23:35;14.03;;;4.57;;
24555;SDS011;12725;49.440;10.954;2023-02-24T09:27:45;9.13;;;4.10;;
24555;SDS011;12725;49.440;10.954;2023-02-24T09:32:09;4.25;;;2.70;;
24555;SDS011;12725;49.440;10.954;2023-02-24T09:36:14;4.82;;;2.95;;
24555;SDS011;12725;49.440;10.954;2023-02-24T09:40:19;8.52;;;5.18;;
24555;SDS011;12725;49.440;10.954;2023-02-24T09:44:38;4.72;;;3.45;;
24555;SDS011;12725;49.440;10.954;2023-02-24T09:48:41;9.23;;;4.22;;
24555;SDS011;12725;49.440;10.954;2023-02-24T09:52:47;7.28;;;3.40;;
24555;SDS011;12725;49.440;10.954;2023-02-24T09:56:55;5.60;;;2.90;;
24555;SDS011;12725;49.440;10.954;2023-02-24T10:05:46;4.07;;;3.45;;
24555;SDS011;12725;49.440;10.954;2023-02-24T10:09:59;5.03;;;3.88;;
24555;SDS011;12725;49.440;10.954;2023-02-24T10:14:19;16.60;;;5.88;;
24555;SDS011;12725;49.440;10.954;2023-02-24T10:18:48;5.38;;;2.65;;
24555;SDS011;12725;49.440;10.954;2023-02-24T10:23:16;3.15;;;2.00;;
24555;SDS011;12725;49.440;10.954;2023-02-24T10:27:51;3.85;;;2.95;;
24555;SDS011;12725;49.440;10.954;2023-02-24T10:32:02;5.13;;;3.13;;
24555;SDS011;12725;49.440;10.954;2023-02-24T10:36:18;18.23;;;2.70;;
24555;SDS011;12725;49.440;10.954;2023-02-24T10:40:24;7.93;;;3.08;;
24555;SDS011;12725;49.440;10.954;2023-02-24T10:44:45;3.08;;;2.42;;
24555;SDS011;12725;49.440;10.954;2023-02-24T10:48:54;15.23;;;2.83;;
24555;SDS011;12725;49.440;10.954;2023-02-24T10:53:04;3.97;;;1.80;;
24555;SDS011;12725;49.440;10.954;2023-02-24T10:57:06;7.25;;;2.40;;
24555;SDS011;12725;49.440;10.954;2023-02-24T11:01:14;15.20;;;2.63;;
24555;SDS011;12725;49.440;10.954;2023-02-24T11:05:40;3.78;;;2.47;;
24555;SDS011;12725;49.440;10.954;2023-02-24T11:10:05;9.82;;;2.40;;
24555;SDS011;12725;49.440;10.954;2023-02-24T11:14:14;12.18;;;2.80;;
24555;SDS011;12725;49.440;10.954;2023-02-24T11:18:35;3.60;;;1.95;;
24555;SDS011;12725;49.440;10.954;2023-02-24T11:22:37;2.85;;;1.60;;
24555;SDS011;12725;49.440;10.954;2023-02-24T11:26:41;3.92;;;1.83;;
24555;SDS011;12725;49.440;10.954;2023-02-24T11:30:50;3.17;;;2.17;;
24555;SDS011;12725;49.440;10.954;2023-02-24T11:34:59;8.32;;;2.53;;
24555;SDS011;12725;49.440;10.954;2023-02-24T11:39:21;2.53;;;1.95;;
24555;SDS011;12725;49.440;10.954;2023-02-24T11:43:35;6.35;;;1.63;;
24555;SDS011;12725;49.440;10.954;2023-02-24T11:48:19;1.60;;;1.50;;
24555;SDS011;12725;49.440;10.954;2023-02-24T11:52:00;1.10;;;1.10;;
24555;SDS011;12725;49.440;10.954;2023-02-24T11:56:11;7.90;;;2.28;;
24555;SDS011;12725;49.440;10.954;2023-02-24T12:00:19;6.57;;;3.13;;
24555;SDS011;12725;49.440;10.954;2023-02-24T12:12:36;2.05;;;1.55;;
24555;SDS011;12725;49.440;10.954;2023-02-24T12:16:40;4.53;;;2.03;;
24555;SDS011;12725;49.440;10.954;2023-02-24T12:24:50;3.22;;;1.42;;
24555;SDS011;12725;49.440;10.954;2023-02-24T12:41:34;2.85;;;1.42;;
24555;SDS011;12725;49.440;10.954;2023-02-24T12:54:33;4.25;;;2.03;;
24555;SDS011;12725;49.440;10.954;2023-02-24T13:02:46;2.50;;;1.77;;
24555;SDS011;12725;49.440;10.954;2023-02-24T13:15:25;2.08;;;1.15;;
24555;SDS011;12725;49.440;10.954;2023-02-24T13:19:30;2.40;;;2.20;;
24555;SDS011;12725;49.440;10.954;2023-02-24T13:23:31;1.30;;;1.20;;
24555;SDS011;12725;49.440;10.954;2023-02-24T13:27:36;2.13;;;2.00;;
24555;SDS011;12725;49.440;10.954;2023-02-24T13:31:47;1.25;;;1.15;;
24555;SDS011;12725;49.440;10.954;2023-02-24T13:35:50;6.22;;;3.13;;
24555;SDS011;12725;49.440;10.954;2023-02-24T13:52:46;4.60;;;2.47;;
24555;SDS011;12725;49.440;10.954;2023-02-24T14:01:22;7.05;;;1.92;;
24555;SDS011;12725;49.440;10.954;2023-02-24T14:05:26;1.00;;;1.00;;
24555;SDS011;12725;49.440;10.954;2023-02-24T14:09:32;8.27;;;2.47;;
24555;SDS011;12725;49.440;10.954;2023-02-24T14:13:33;3.35;;;2.20;;
24555;SDS011;12725;49.440;10.954;2023-02-24T14:17:35;7.38;;;2.45;;
24555;SDS011;12725;49.440;10.954;2023-02-24T14:21:36;3.92;;;1.88;;
24555;SDS011;12725;49.440;10.954;2023-02-24T14:25:37;4.32;;;1.88;;
24555;SDS011;12725;49.440;10.954;2023-02-24T14:29:38;1.73;;;1.40;;
24555;SDS011;12725;49.440;10.954;2023-02-24T14:33:40;6.47;;;1.38;;
24555;SDS011;12725;49.440;10.954;2023-02-24T14:37:42;6.68;;;1.63;;
24555;SDS011;12725;49.440;10.954;2023-02-24T14:41:42;3.92;;;2.63;;
24555;SDS011;12725;49.440;10.954;2023-02-24T14:45:47;4.20;;;1.77;;
24555;SDS011;12725;49.440;10.954;2023-02-24T14:53:54;4.82;;;2.03;;
24555;SDS011;12725;49.440;10.954;2023-02-24T14:57:57;1.35;;;1.13;;
24555;SDS011;12725;49.440;10.954;2023-02-24T15:02:02;8.50;;;2.55;;
24555;SDS011;12725;49.440;10.954;2023-02-24T15:06:12;2.00;;;1.40;;
24555;SDS011;12725;49.440;10.954;2023-02-24T15:10:23;2.55;;;2.35;;
24555;SDS011;12725;49.440;10.954;2023-02-24T15:14:26;6.85;;;3.42;;
24555;SDS011;12725;49.440;10.954;2023-02-24T15:18:28;1.65;;;1.50;;
24555;SDS011;12725;49.440;10.954;2023-02-24T15:22:32;6.95;;;1.35;;
24555;SDS011;12725;49.440;10.954;2023-02-24T15:26:33;21.65;;;2.00;;
24555;SDS011;12725;49.440;10.954;2023-02-24T15:30:35;7.30;;;1.95;;
24555;SDS011;12725;49.440;10.954;2023-02-24T15:34:37;4.90;;;2.17;;
24555;SDS011;12725;49.440;10.954;2023-02-24T15:38:39;2.10;;;1.63;;
24555;SDS011;12725;49.440;10.954;2023-02-24T15:42:48;10.20;;;1.98;;
24555;SDS011;12725;49.440;10.954;2023-02-24T15:46:54;3.78;;;3.00;;
24555;SDS011;12725;49.440;10.954;2023-02-24T15:50:56;5.28;;;1.63;;
24555;SDS011;12725;49.440;10.954;2023-02-24T15:54:58;5.47;;;1.70;;
24555;SDS011;12725;49.440;10.954;2023-02-24T15:59:01;2.03;;;1.88;;
24555;SDS011;12725;49.440;10.954;2023-02-24T16:03:02;4.55;;;1.73;;
24555;SDS011;12725;49.440;10.954;2023-02-24T16:07:03;2.67;;;1.23;;
24555;SDS011;12725;49.440;10.954;2023-02-24T16:11:05;0.80;;;0.80;;
24555;SDS011;12725;49.440;10.954;2023-02-24T16:15:06;1.85;;;1.30;;
24555;SDS011;12725;49.440;10.954;2023-02-24T16:19:15;1.95;;;0.88;;
24555;SDS011;12725;49.440;10.954;2023-02-24T16:23:16;4.20;;;1.88;;
24555;SDS011;12725;49.440;10.954;2023-02-24T16:27:20;6.53;;;2.45;;
24555;SDS011;12725;49.440;10.954;2023-02-24T16:31:22;2.17;;;1.63;;
24555;SDS011;12725;49.440;10.954;2023-02-24T16:35:24;3.03;;;1.92;;
24555;SDS011;12725;49.440;10.954;2023-02-24T16:39:25;1.45;;;1.27;;
24555;SDS011;12725;49.440;10.954;2023-02-24T16:43:26;1.55;;;1.45;;
24555;SDS011;12725;49.440;10.954;2023-02-24T16:47:26;2.25;;;2.08;;
24555;SDS011;12725;49.440;10.954;2023-02-24T16:51:27;8.75;;;2.03;;
24555;SDS011;12725;49.440;10.954;2023-02-24T16:55:28;5.78;;;2.67;;
24555;SDS011;12725;49.440;10.954;2023-02-24T16:59:28;3.50;;;2.30;;
24555;SDS011;12725;49.440;10.954;2023-02-24T17:03:30;4.15;;;2.25;;
24555;SDS011;12725;49.440;10.954;2023-02-24T17:07:41;5.82;;;2.53;;
24555;SDS011;12725;49.440;10.954;2023-02-24T17:11:41;3.23;;;1.17;;
24555;SDS011;12725;49.440;10.954;2023-02-24T17:15:42;6.72;;;2.58;;
24555;SDS011;12725;49.440;10.954;2023-02-24T17:19:42;12.75;;;1.90;;
24555;SDS011;12725;49.440;10.954;2023-02-24T17:23:44;3.37;;;2.40;;
24555;SDS011;12725;49.440;10.954;2023-02-24T17:27:45;14.52;;;2.80;;
24555;SDS011;12725;49.440;10.954;2023-02-24T17:31:45;9.55;;;3.35;;
24555;SDS011;12725;49.440;10.954;2023-02-24T17:35:46;5.78;;;1.80;;
24555;SDS011;12725;49.440;10.954;2023-02-24T17:39:47;5.63;;;1.80;;
24555;SDS011;12725;49.440;10.954;2023-02-24T17:43:49;1.80;;;1.70;;
24555;SDS011;12725;49.440;10.954;2023-02-24T17:47:50;3.00;;;1.80;;
24555;SDS011;12725;49.440;10.954;2023-02-24T17:51:52;11.00;;;2.45;;
24555;SDS011;12725;49.440;10.954;2023-02-24T17:56:00;4.22;;;2.25;;
24555;SDS011;12725;49.440;10.954;2023-02-24T18:00:02;2.40;;;2.00;;
24555;SDS011;12725;49.440;10.954;2023-02-24T18:04:03;7.53;;;2.42;;
24555;SDS011;12725;49.440;10.954;2023-02-24T18:08:04;2.75;;;2.30;;
24555;SDS011;12725;49.440;10.954;2023-02-24T18:12:04;0.85;;;0.85;;
24555;SDS011;12725;49.440;10.954;2023-02-24T18:16:08;1.02;;;0.88;;
24555;SDS011;12725;49.440;10.954;2023-02-24T18:20:10;4.03;;;1.85;;
24555;SDS011;12725;49.440;10.954;2023-02-24T18:24:11;5.32;;;2.47;;
24555;SDS011;12725;49.440;10.954;2023-02-24T18:28:12;1.98;;;1.67;;
24555;SDS011;12725;49.440;10.954;2023-02-24T18:32:12;2.75;;;2.03;;
24555;SDS011;12725;49.440;10.954;2023-02-24T18:36:13;3.63;;;2.05;;
24555;SDS011;12725;49.440;10.954;2023-02-24T18:40:14;2.50;;;1.73;;
24555;SDS011;12725;49.440;10.954;2023-02-24T18:44:14;0.85;;;0.85;;
24555;SDS011;12725;49.440;10.954;2023-02-24T18:48:14;2.30;;;1.85;;
24555;SDS011;12725;49.440;10.954;2023-02-24T18:52:15;6.35;;;1.30;;
24555;SDS011;12725;49.440;10.954;2023-02-24T18:56:18;3.72;;;1.85;;
24555;SDS011;12725;49.440;10.954;2023-02-24T19:00:20;0.82;;;0.82;;
24555;SDS011;12725;49.440;10.954;2023-02-24T19:04:20;1.63;;;1.17;;
24555;SDS011;12725;49.440;10.954;2023-02-24T19:08:21;1.40;;;1.30;;
24555;SDS011;12725;49.440;10.954;2023-02-24T19:12:21;2.22;;;1.75;;
24555;SDS011;12725;49.440;10.954;2023-02-24T19:16:23;4.93;;;2.85;;
24555;SDS011;12725;49.440;10.954;2023-02-24T19:20:23;5.35;;;2.22;;
24555;SDS011;12725;49.440;10.954;2023-02-24T19:24:24;1.70;;;1.40;;
24555;SDS011;12725;49.440;10.954;2023-02-24T19:28:24;3.08;;;2.08;;
24555;SDS011;12725;49.440;10.954;2023-02-24T19:32:25;3.20;;;1.60;;
24555;SDS011;12725;49.440;10.954;2023-02-24T19:36:25;1.42;;;1.40;;
24555;SDS011;12725;49.440;10.954;2023-02-24T19:40:30;1.05;;;1.00;;
24555;SDS011;12725;49.440;10.954;2023-02-24T19:44:32;1.17;;;1.17;;
24555;SDS011;12725;49.440;10.954;2023-02-24T19:48:33;1.23;;;1.17;;
24555;SDS011;12725;49.440;10.954;2023-02-24T19:52:33;1.42;;;1.27;;
24555;SDS011;12725;49.440;10.954;2023-02-24T19:56:34;2.05;;;1.63;;
24555;SDS011;12725;49.440;10.954;2023-02-24T20:00:35;3.70;;;1.60;;
24555;SDS011;12725;49.440;10.954;2023-02-24T20:04:35;4.30;;;1.45;;
24555;SDS011;12725;49.440;10.954;2023-02-24T20:08:36;2.25;;;2.05;;
24555;SDS011;12725;49.440;10.954;2023-02-24T20:12:37;1.48;;;1.40;;
24555;SDS011;12725;49.440;10.954;2023-02-24T20:16:39;1.65;;;1.25;;
24555;SDS011;12725;49.440;10.954;2023-02-24T20:20:41;0.60;;;0.60;;
24555;SDS011;12725;49.440;10.954;2023-02-24T20:24:41;2.60;;;0.90;;
24555;SDS011;12725;49.440;10.954;2023-02-24T20:28:43;0.80;;;0.80;;
24555;SDS011;12725;49.440;10.954;2023-02-24T20:32:43;1.45;;;1.35;;
24555;SDS011;12725;49.440;10.954;2023-02-24T20:36:44;0.60;;;0.60;;
24555;SDS011;12725;49.440;10.954;2023-02-24T20:40:54;1.00;;;1.00;;
24555;SDS011;12725;49.440;10.954;2023-02-24T20:44:56;0.90;;;0.90;;
24555;SDS011;12725;49.440;10.954;2023-02-24T20:48:58;0.63;;;0.63;;
24555;SDS011;12725;49.440;10.954;2023-02-24T20:53:06;0.80;;;0.80;;
24555;SDS011;12725;49.440;10.954;2023-02-24T20:57:06;1.20;;;1.15;;
24555;SDS011;12725;49.440;10.954;2023-02-24T21:01:09;3.20;;;1.10;;
24555;SDS011;12725;49.440;10.954;2023-02-24T21:05:17;0.60;;;0.60;;
24555;SDS011;12725;49.440;10.954;2023-02-24T21:09:19;0.88;;;0.88;;
24555;SDS011;12725;49.440;10.954;2023-02-24T21:13:19;0.70;;;0.70;;
24555;SDS011;12725;49.440;10.954;2023-02-24T21:17:20;0.80;;;0.80;;
24555;SDS011;12725;49.440;10.954;2023-02-24T21:21:21;0.60;;;0.60;;
24555;SDS011;12725;49.440;10.954;2023-02-24T21:25:21;0.70;;;0.70;;
24555;SDS011;12725;49.440;10.954;2023-02-24T21:29:22;1.30;;;1.23;;
24555;SDS011;12725;49.440;10.954;2023-02-24T21:33:22;0.60;;;0.60;;
24555;SDS011;12725;49.440;10.954;2023-02-24T21:37:23;0.80;;;0.80;;
24555;SDS011;12725;49.440;10.954;2023-02-24T21:41:24;0.60;;;0.60;;
24555;SDS011;12725;49.440;10.954;2023-02-24T21:45:24;0.82;;;0.80;;
24555;SDS011;12725;49.440;10.954;2023-02-24T21:49:26;0.70;;;0.70;;
24555;SDS011;12725;49.440;10.954;2023-02-24T21:53:27;0.70;;;0.70;;
24555;SDS011;12725;49.440;10.954;2023-02-24T21:57:28;0.80;;;0.80;;
24555;SDS011;12725;49.440;10.954;2023-02-24T22:01:31;0.60;;;0.60;;
24555;SDS011;12725;49.440;10.954;2023-02-24T22:05:33;0.80;;;0.80;;
24555;SDS011;12725;49.440;10.954;2023-02-24T22:09:33;0.60;;;0.60;;
24555;SDS011;12725;49.440;10.954;2023-02-24T22:13:34;1.17;;;1.08;;
24555;SDS011;12725;49.440;10.954;2023-02-24T22:17:35;0.63;;;0.63;;
24555;SDS011;12725;49.440;10.954;2023-02-24T22:21:36;1.00;;;1.00;;
24555;SDS011;12725;49.440;10.954;2023-02-24T22:25:39;0.73;;;0.73;;
24555;SDS011;12725;49.440;10.954;2023-02-24T22:29:41;0.60;;;0.60;;
24555;SDS011;12725;49.440;10.954;2023-02-24T22:33:43;0.60;;;0.60;;
24555;SDS011;12725;49.440;10.954;2023-02-24T22:37:44;0.80;;;0.80;;
24555;SDS011;12725;49.440;10.954;2023-02-24T22:41:44;0.60;;;0.60;;
24555;SDS011;12725;49.440;10.954;2023-02-24T22:45:54;0.90;;;0.85;;
24555;SDS011;12725;49.440;10.954;2023-02-24T22:49:55;0.70;;;0.70;;
24555;SDS011;12725;49.440;10.954;2023-02-24T22:53:55;0.93;;;0.93;;
24555;SDS011;12725;49.440;10.954;2023-02-24T22:57:58;0.70;;;0.70;;
24555;SDS011;12725;49.440;10.954;2023-02-24T23:01:59;0.60;;;0.60;;
24555;SDS011;12725;49.440;10.954;2023-02-24T23:06:03;0.60;;;0.60;;
24555;SDS011;12725;49.440;10.954;2023-02-24T23:10:07;1.73;;;0.75;;
24555;SDS011;12725;49.440;10.954;2023-02-24T23:14:09;1.00;;;1.00;;
24555;SDS011;12725;49.440;10.954;2023-02-24T23:18:12;0.90;;;0.90;;
24555;SDS011;12725;49.440;10.954;2023-02-24T23:22:13;1.17;;;1.15;;
24555;SDS011;12725;49.440;10.954;2023-02-24T23:26:14;0.88;;;0.88;;
24555;SDS011;12725;49.440;10.954;2023-02-24T23:30:15;0.70;;;0.70;;
24555;SDS011;12725;49.440;10.954;2023-02-24T23:34:15;0.73;;;0.73;;
24555;SDS011;12725;49.440;10.954;2023-02-24T23:38:16;0.70;;;0.70;;
24555;SDS011;12725;49.440;10.954;2023-02-24T23:42:16;1.02;;;1.02;;
24555;SDS011;12725;49.440;10.954;2023-02-24T23:46:18;1.23;;;1.13;;
24555;SDS011;12725;49.440;10.954;2023-02-24T23:50:19;0.70;;;0.70;;
24555;SDS011;12725;49.440;10.954;2023-02-24T23:54:20;1.25;;;1.15;;
24555;SDS011;12725;49.440;10.954;2023-02-24T23:58:20;0.70;;;0.70;;
